createdAt,value
2017-09-09T00:00:08.409Z,16
2017-09-09T00:01:10.516Z,16
2017-09-09T00:02:12.641Z,15.9
2017-09-09T00:03:14.744Z,16
2017-09-09T00:04:17.256Z,15.9
2017-09-09T00:05:19.427Z,16
2017-09-09T00:06:21.597Z,16
2017-09-09T00:07:23.718Z,16
2017-09-09T00:08:25.842Z,16
2017-09-09T00:09:28.357Z,16
2017-09-09T00:10:30.412Z,16
2017-09-09T00:11:32.548Z,16.1
2017-09-09T00:12:34.786Z,16
2017-09-09T00:13:37.577Z,16.1
2017-09-09T00:14:40.078Z,16.1
2017-09-09T00:15:42.210Z,16
2017-09-09T00:16:44.328Z,16.1
2017-09-09T00:17:46.456Z,16.1
2017-09-09T00:18:48.697Z,16.1
2017-09-09T00:19:51.207Z,16.1
2017-09-09T00:20:53.298Z,16.1
2017-09-09T00:21:55.413Z,16.2
2017-09-09T00:22:57.487Z,16.1
2017-09-09T00:23:59.542Z,16.1
2017-09-09T00:25:01.942Z,16
2017-09-09T00:26:04.022Z,16
2017-09-09T00:27:06.174Z,16.2
2017-09-09T00:28:08.267Z,16.1
2017-09-09T00:29:10.376Z,16.1
2017-09-09T00:30:12.729Z,16
2017-09-09T00:31:14.873Z,16
2017-09-09T00:32:16.930Z,16
2017-09-09T00:33:19.032Z,16
2017-09-09T00:34:21.158Z,16
2017-09-09T00:35:23.698Z,16
2017-09-09T00:36:25.803Z,15.8
2017-09-09T00:37:27.877Z,15.9
2017-09-09T00:38:29.882Z,15.9
2017-09-09T00:39:31.977Z,15.9
2017-09-09T00:40:34.441Z,15.9
2017-09-09T00:41:36.543Z,15.9
2017-09-09T00:42:38.614Z,15.9
2017-09-09T00:43:40.739Z,15.8
2017-09-09T00:44:42.861Z,15.9
2017-09-09T00:45:45.357Z,15.8
2017-09-09T00:46:47.512Z,15.7
2017-09-09T00:47:49.722Z,15.7
2017-09-09T00:48:51.848Z,15.7
2017-09-09T00:49:54.051Z,15.7
2017-09-09T00:50:56.467Z,15.8
2017-09-09T00:51:58.603Z,15.8
2017-09-09T00:53:00.753Z,15.8
2017-09-09T00:54:02.849Z,15.8
2017-09-09T00:55:04.930Z,15.8
2017-09-09T00:56:07.363Z,15.8
2017-09-09T00:57:09.589Z,15.8
2017-09-09T00:58:11.715Z,15.8
2017-09-09T00:59:13.756Z,15.8
2017-09-09T01:00:15.847Z,15.8
2017-09-09T01:01:18.215Z,15.8
2017-09-09T01:02:20.273Z,15.8
2017-09-09T01:03:22.364Z,15.9
2017-09-09T01:04:24.511Z,15.9
2017-09-09T01:05:26.606Z,15.8
2017-09-09T01:06:28.997Z,15.9
2017-09-09T01:07:31.320Z,15.9
2017-09-09T01:08:33.420Z,16
2017-09-09T01:09:35.544Z,15.9
2017-09-09T01:10:37.647Z,15.9
2017-09-09T01:11:40.129Z,15.9
2017-09-09T01:12:42.213Z,15.9
2017-09-09T01:13:44.348Z,15.9
2017-09-09T01:14:46.583Z,15.9
2017-09-09T01:15:48.652Z,16
2017-09-09T01:16:51.107Z,16
2017-09-09T01:17:53.227Z,16
2017-09-09T01:18:55.311Z,15.9
2017-09-09T01:19:57.391Z,16
2017-09-09T01:20:59.528Z,15.9
2017-09-09T01:22:02.003Z,16
2017-09-09T01:23:04.112Z,15.9
2017-09-09T01:24:06.208Z,16
2017-09-09T01:25:08.270Z,15.9
2017-09-09T01:26:10.368Z,16
2017-09-09T01:27:12.735Z,16
2017-09-09T01:28:14.832Z,15.9
2017-09-09T01:29:16.924Z,15.9
2017-09-09T01:30:19.007Z,16
2017-09-09T01:31:21.077Z,16
2017-09-09T01:32:23.448Z,16
2017-09-09T01:33:25.536Z,16.1
2017-09-09T01:34:27.608Z,16.1
2017-09-09T01:35:29.722Z,16
2017-09-09T01:36:31.845Z,16
2017-09-09T01:37:34.250Z,16.1
2017-09-09T01:38:36.329Z,16.1
2017-09-09T01:39:38.440Z,16
2017-09-09T01:40:40.543Z,16
2017-09-09T01:41:42.630Z,16
2017-09-09T01:42:45.107Z,16
2017-09-09T01:43:47.248Z,16
2017-09-09T01:44:49.308Z,16
2017-09-09T01:45:51.361Z,16
2017-09-09T01:46:53.449Z,16
2017-09-09T01:47:55.798Z,16
2017-09-09T01:48:58.014Z,16
2017-09-09T01:50:00.097Z,15.9
2017-09-09T01:51:02.168Z,16
2017-09-09T01:52:04.216Z,16
2017-09-09T01:53:06.624Z,16
2017-09-09T01:54:08.675Z,16
2017-09-09T01:55:10.772Z,16.1
2017-09-09T01:56:12.865Z,16
2017-09-09T01:57:15.197Z,16.1
2017-09-09T01:58:17.596Z,16
2017-09-09T01:59:19.639Z,16
2017-09-09T02:00:21.714Z,16
2017-09-09T02:01:23.781Z,15.9
2017-09-09T02:02:25.938Z,15.9
2017-09-09T02:03:28.312Z,15.9
2017-09-09T02:04:30.369Z,15.8
2017-09-09T02:05:32.454Z,15.8
2017-09-09T02:06:34.532Z,15.8
2017-09-09T02:07:36.587Z,15.7
2017-09-09T02:08:38.942Z,15.6
2017-09-09T02:09:41.131Z,15.6
2017-09-09T02:10:43.251Z,15.6
2017-09-09T02:11:45.314Z,15.6
2017-09-09T02:12:47.425Z,15.6
2017-09-09T02:13:49.964Z,15.7
2017-09-09T02:14:52.026Z,15.7
2017-09-09T02:15:54.109Z,15.7
2017-09-09T02:16:56.267Z,15.6
2017-09-09T02:17:58.284Z,15.6
2017-09-09T02:19:00.689Z,15.6
2017-09-09T02:20:02.814Z,15.6
2017-09-09T02:21:04.856Z,15.7
2017-09-09T02:22:06.996Z,15.5
2017-09-09T02:23:09.104Z,15.5
2017-09-09T02:24:11.626Z,15.5
2017-09-09T02:25:13.683Z,15.6
2017-09-09T02:26:15.929Z,15.6
2017-09-09T02:27:18.018Z,15.6
2017-09-09T02:28:20.127Z,15.6
2017-09-09T02:29:22.618Z,15.6
2017-09-09T02:30:24.718Z,15.6
2017-09-09T02:31:26.899Z,15.6
2017-09-09T02:32:28.981Z,15.6
2017-09-09T02:33:31.099Z,15.5
2017-09-09T02:34:33.813Z,15.5
2017-09-09T02:35:36.216Z,15.5
2017-09-09T02:36:38.420Z,15.5
2017-09-09T02:37:40.485Z,15.6
2017-09-09T02:38:42.536Z,15.6
2017-09-09T02:39:45.059Z,15.6
2017-09-09T02:40:47.136Z,15.5
2017-09-09T02:41:49.210Z,15.5
2017-09-09T02:42:51.293Z,15.5
2017-09-09T02:43:53.345Z,15.5
2017-09-09T02:44:55.810Z,15.4
2017-09-09T02:45:57.869Z,15.4
2017-09-09T02:46:59.903Z,15.4
2017-09-09T02:48:01.958Z,15.4
2017-09-09T02:49:04.028Z,15.4
2017-09-09T02:50:06.395Z,15.4
2017-09-09T02:51:08.468Z,15.4
2017-09-09T02:52:10.513Z,15.4
2017-09-09T02:53:12.621Z,15.4
2017-09-09T02:54:14.663Z,15.3
2017-09-09T02:55:17.071Z,15.3
2017-09-09T02:56:19.172Z,15.4
2017-09-09T02:57:21.225Z,15.4
2017-09-09T02:58:23.287Z,15.4
2017-09-09T02:59:25.402Z,15.3
2017-09-09T03:00:27.839Z,15.5
2017-09-09T03:01:29.865Z,15.4
2017-09-09T03:02:31.972Z,15.5
2017-09-09T03:03:34.039Z,15.5
2017-09-09T03:04:36.088Z,15.4
2017-09-09T03:05:38.444Z,15.5
2017-09-09T03:06:40.553Z,15.5
2017-09-09T03:07:42.674Z,15.5
2017-09-09T03:08:44.737Z,15.5
2017-09-09T03:09:46.763Z,15.5
2017-09-09T03:10:49.149Z,15.5
2017-09-09T03:11:51.167Z,15.5
2017-09-09T03:12:53.279Z,15.5
2017-09-09T03:13:55.357Z,15.4
2017-09-09T03:14:57.397Z,15.5
2017-09-09T03:15:59.910Z,15.5
2017-09-09T03:17:01.942Z,15.5
2017-09-09T03:18:04.031Z,15.5
2017-09-09T03:19:06.071Z,15.6
2017-09-09T03:20:08.136Z,15.5
2017-09-09T03:21:10.566Z,15.5
2017-09-09T03:22:12.630Z,15.5
2017-09-09T03:23:14.705Z,15.5
2017-09-09T03:24:16.734Z,15.5
2017-09-09T03:25:18.826Z,15.4
2017-09-09T03:26:21.233Z,15.4
2017-09-09T03:27:23.421Z,15.4
2017-09-09T03:28:25.496Z,15.5
2017-09-09T03:29:27.564Z,15.4
2017-09-09T03:30:29.657Z,15.4
2017-09-09T03:31:31.999Z,15.4
2017-09-09T03:32:34.165Z,15.4
2017-09-09T03:33:36.248Z,15.5
2017-09-09T03:34:38.319Z,15.4
2017-09-09T03:35:40.368Z,15.4
2017-09-09T03:36:42.744Z,15.4
2017-09-09T03:37:44.797Z,15.4
2017-09-09T03:38:46.931Z,15.4
2017-09-09T03:39:49.007Z,15.4
2017-09-09T03:40:51.075Z,15.4
2017-09-09T03:41:53.550Z,15.5
2017-09-09T03:42:55.587Z,15.4
2017-09-09T03:43:57.616Z,15.4
2017-09-09T03:44:59.721Z,15.4
2017-09-09T03:46:01.762Z,15.3
2017-09-09T03:47:04.208Z,15.3
2017-09-09T03:48:06.267Z,15.4
2017-09-09T03:49:08.277Z,15.5
2017-09-09T03:50:10.334Z,15.4
2017-09-09T03:51:12.368Z,15.4
2017-09-09T03:52:14.717Z,15.4
2017-09-09T03:53:16.791Z,15.4
2017-09-09T03:54:18.901Z,15.4
2017-09-09T03:55:20.985Z,15.4
2017-09-09T03:56:23.132Z,15.5
2017-09-09T03:57:25.554Z,15.4
2017-09-09T03:58:27.647Z,15.4
2017-09-09T03:59:29.690Z,15.4
2017-09-09T04:00:31.768Z,15.5
2017-09-09T04:01:33.969Z,15.5
2017-09-09T04:02:36.433Z,15.5
2017-09-09T04:03:38.590Z,15.5
2017-09-09T04:04:40.668Z,15.5
2017-09-09T04:05:42.791Z,15.4
2017-09-09T04:06:44.867Z,15.5
2017-09-09T04:07:47.252Z,15.6
2017-09-09T04:08:49.409Z,15.5
2017-09-09T04:09:51.463Z,15.5
2017-09-09T04:10:53.512Z,15.5
2017-09-09T04:11:55.550Z,15.5
2017-09-09T04:12:58.018Z,15.6
2017-09-09T04:14:00.088Z,15.6
2017-09-09T04:15:02.128Z,15.6
2017-09-09T04:16:04.311Z,15.6
2017-09-09T04:17:06.347Z,15.7
2017-09-09T04:18:08.674Z,15.6
2017-09-09T04:19:10.730Z,15.6
2017-09-09T04:20:12.796Z,15.7
2017-09-09T04:21:14.871Z,15.7
2017-09-09T04:22:16.950Z,15.6
2017-09-09T04:23:19.281Z,15.6
2017-09-09T04:24:21.341Z,15.6
2017-09-09T04:25:23.441Z,15.7
2017-09-09T04:26:25.517Z,15.7
2017-09-09T04:27:27.570Z,15.7
2017-09-09T04:28:29.969Z,15.7
2017-09-09T04:29:32.299Z,15.7
2017-09-09T04:30:34.714Z,15.7
2017-09-09T04:31:37.197Z,15.7
2017-09-09T04:32:39.637Z,15.7
2017-09-09T04:33:42.373Z,15.7
2017-09-09T04:34:44.850Z,15.7
2017-09-09T04:35:47.386Z,15.7
2017-09-09T04:36:49.811Z,15.7
2017-09-09T04:37:52.331Z,15.7
2017-09-09T04:38:55.095Z,15.6
2017-09-09T04:39:57.602Z,15.6
2017-09-09T04:40:59.911Z,15.7
2017-09-09T04:42:02.020Z,15.8
2017-09-09T04:43:04.087Z,15.7
2017-09-09T04:44:06.637Z,15.7
2017-09-09T04:45:08.669Z,15.7
2017-09-09T04:46:10.734Z,15.7
2017-09-09T04:47:12.799Z,15.7
2017-09-09T04:48:14.849Z,15.7
2017-09-09T04:49:17.469Z,15.6
2017-09-09T04:50:19.499Z,15.6
2017-09-09T04:51:21.536Z,15.6
2017-09-09T04:52:23.588Z,15.7
2017-09-09T04:53:25.685Z,15.7
2017-09-09T04:54:28.114Z,15.8
2017-09-09T04:55:30.160Z,15.8
2017-09-09T04:56:32.325Z,15.7
2017-09-09T04:57:34.391Z,15.6
2017-09-09T04:58:36.450Z,15.6
2017-09-09T04:59:38.886Z,15.7
2017-09-09T05:00:41.064Z,15.8
2017-09-09T05:01:43.118Z,15.8
2017-09-09T05:02:45.141Z,15.8
2017-09-09T05:03:47.172Z,15.7
2017-09-09T05:04:49.544Z,15.7
2017-09-09T05:05:51.653Z,15.7
2017-09-09T05:06:53.799Z,15.8
2017-09-09T05:07:55.892Z,15.7
2017-09-09T05:08:57.981Z,15.8
2017-09-09T05:10:00.347Z,15.7
2017-09-09T05:11:02.468Z,15.7
2017-09-09T05:12:04.570Z,15.8
2017-09-09T05:13:06.635Z,15.8
2017-09-09T05:14:08.702Z,15.8
2017-09-09T05:15:11.112Z,15.9
2017-09-09T05:16:13.182Z,15.9
2017-09-09T05:17:15.410Z,15.9
2017-09-09T05:18:17.487Z,15.9
2017-09-09T05:19:19.668Z,15.9
2017-09-09T05:20:22.107Z,15.8
2017-09-09T05:21:24.160Z,15.8
2017-09-09T05:22:26.231Z,15.9
2017-09-09T05:23:28.299Z,15.8
2017-09-09T05:24:30.341Z,15.9
2017-09-09T05:25:32.775Z,15.8
2017-09-09T05:26:34.864Z,15.8
2017-09-09T05:27:36.964Z,15.9
2017-09-09T05:28:39.098Z,15.9
2017-09-09T05:29:41.155Z,16
2017-09-09T05:30:43.497Z,15.9
2017-09-09T05:31:45.591Z,15.9
2017-09-09T05:32:47.663Z,15.9
2017-09-09T05:33:49.723Z,15.9
2017-09-09T05:34:51.764Z,15.9
2017-09-09T05:35:54.176Z,16
2017-09-09T05:36:56.330Z,15.9
2017-09-09T05:37:58.400Z,15.9
2017-09-09T05:39:00.426Z,15.9
2017-09-09T05:40:02.500Z,15.8
2017-09-09T05:41:04.835Z,15.9
2017-09-09T05:42:06.948Z,15.9
2017-09-09T05:43:08.988Z,15.9
2017-09-09T05:44:11.037Z,15.9
2017-09-09T05:45:13.124Z,15.9
2017-09-09T05:46:15.570Z,15.8
2017-09-09T05:47:17.615Z,15.8
2017-09-09T05:48:19.688Z,15.8
2017-09-09T05:49:21.821Z,15.8
2017-09-09T05:50:23.891Z,15.9
2017-09-09T05:51:26.375Z,15.8
2017-09-09T05:52:28.498Z,15.9
2017-09-09T05:53:30.700Z,15.8
2017-09-09T05:54:32.815Z,15.8
2017-09-09T05:55:34.922Z,15.8
2017-09-09T05:56:37.274Z,15.8
2017-09-09T05:57:39.307Z,15.9
2017-09-09T05:58:41.499Z,15.8
2017-09-09T05:59:43.655Z,15.9
2017-09-09T06:00:45.727Z,15.9
2017-09-09T06:01:48.058Z,15.8
2017-09-09T06:02:50.136Z,15.8
2017-09-09T06:03:52.303Z,15.8
2017-09-09T06:04:54.377Z,15.9
2017-09-09T06:05:56.430Z,15.9
2017-09-09T06:06:58.789Z,15.8
2017-09-09T06:08:00.845Z,15.8
2017-09-09T06:09:02.929Z,15.8
2017-09-09T06:10:04.962Z,15.8
2017-09-09T06:11:07.084Z,15.9
2017-09-09T06:12:09.471Z,15.8
2017-09-09T06:13:11.579Z,15.9
2017-09-09T06:14:13.686Z,15.8
2017-09-09T06:15:15.766Z,15.9
2017-09-09T06:16:17.858Z,15.8
2017-09-09T06:17:20.213Z,15.9
2017-09-09T06:18:22.323Z,15.8
2017-09-09T06:19:24.372Z,15.8
2017-09-09T06:20:26.443Z,15.8
2017-09-09T06:21:28.537Z,15.8
2017-09-09T06:22:30.964Z,15.8
2017-09-09T06:23:33.076Z,15.8
2017-09-09T06:24:35.142Z,15.8
2017-09-09T06:25:37.197Z,15.8
2017-09-09T06:26:39.262Z,15.8
2017-09-09T06:27:41.762Z,15.8
2017-09-09T06:28:43.821Z,15.8
2017-09-09T06:29:45.888Z,15.8
2017-09-09T06:30:47.993Z,15.8
2017-09-09T06:31:50.117Z,15.8
2017-09-09T06:32:52.516Z,15.8
2017-09-09T06:33:54.798Z,15.7
2017-09-09T06:34:56.963Z,15.7
2017-09-09T06:35:59.184Z,15.6
2017-09-09T06:37:01.388Z,15.7
2017-09-09T06:38:03.823Z,15.7
2017-09-09T06:39:05.966Z,15.8
2017-09-09T06:40:08.141Z,15.7
2017-09-09T06:41:10.329Z,15.6
2017-09-09T06:42:12.436Z,15.7
2017-09-09T06:43:14.803Z,15.7
2017-09-09T06:44:16.869Z,15.7
2017-09-09T06:45:19.053Z,15.7
2017-09-09T06:46:21.165Z,15.7
2017-09-09T06:47:23.282Z,15.6
2017-09-09T06:48:25.723Z,15.7
2017-09-09T06:49:27.784Z,15.7
2017-09-09T06:50:29.856Z,15.6
2017-09-09T06:51:31.957Z,15.6
2017-09-09T06:52:34.061Z,15.7
2017-09-09T06:53:36.450Z,15.6
2017-09-09T06:54:38.580Z,15.7
2017-09-09T06:55:40.702Z,15.6
2017-09-09T06:56:42.765Z,15.5
2017-09-09T06:57:44.820Z,15.5
2017-09-09T06:58:47.176Z,15.5
2017-09-09T06:59:49.328Z,15.5
2017-09-09T07:00:51.518Z,15.4
2017-09-09T07:01:53.575Z,15.5
2017-09-09T07:02:55.712Z,15.4
2017-09-09T07:03:58.064Z,15.5
2017-09-09T07:05:00.179Z,15.4
2017-09-09T07:06:02.234Z,15.4
2017-09-09T07:07:04.384Z,15.4
2017-09-09T07:08:06.447Z,15.5
2017-09-09T07:09:08.869Z,15.3
2017-09-09T07:10:11.008Z,15.3
2017-09-09T07:11:13.064Z,15.2
2017-09-09T07:12:15.136Z,15.2
2017-09-09T07:13:17.243Z,15.2
2017-09-09T07:14:19.754Z,15.2
2017-09-09T07:15:22.591Z,15.2
2017-09-09T07:16:24.651Z,15.1
2017-09-09T07:17:26.743Z,15.1
2017-09-09T07:18:29.021Z,15.1
2017-09-09T07:19:31.461Z,15.1
2017-09-09T07:20:33.588Z,15.1
2017-09-09T07:21:35.673Z,15.1
2017-09-09T07:22:37.770Z,15
2017-09-09T07:23:39.840Z,15.2
2017-09-09T07:24:42.244Z,15.1
2017-09-09T07:25:44.346Z,15.1
2017-09-09T07:26:46.495Z,15.1
2017-09-09T07:27:48.592Z,15.1
2017-09-09T07:28:50.712Z,15.2
2017-09-09T07:29:53.133Z,15.1
2017-09-09T07:30:55.221Z,15.1
2017-09-09T07:31:57.353Z,15.2
2017-09-09T07:32:59.442Z,15.2
2017-09-09T07:34:01.597Z,15.2
2017-09-09T07:35:04.090Z,15.3
2017-09-09T07:36:06.172Z,15.1
2017-09-09T07:37:08.273Z,15.2
2017-09-09T07:38:10.430Z,15.1
2017-09-09T07:39:12.544Z,15.1
2017-09-09T07:40:15.154Z,15.2
2017-09-09T07:41:17.273Z,15
2017-09-09T07:42:19.379Z,15
2017-09-09T07:43:21.510Z,15.1
2017-09-09T07:44:23.591Z,15
2017-09-09T07:45:26.110Z,15
2017-09-09T07:46:28.224Z,15.1
2017-09-09T07:47:30.370Z,15
2017-09-09T07:48:32.366Z,15
2017-09-09T07:49:34.464Z,15
2017-09-09T07:50:36.942Z,15
2017-09-09T07:51:39.065Z,15.1
2017-09-09T07:52:41.189Z,15
2017-09-09T07:53:43.264Z,15
2017-09-09T07:54:45.308Z,15.1
2017-09-09T07:55:47.709Z,15.1
2017-09-09T07:56:49.823Z,15.1
2017-09-09T07:57:51.873Z,15.2
2017-09-09T07:58:53.942Z,15.1
2017-09-09T07:59:56.001Z,15.1
2017-09-09T08:00:58.394Z,15.1
2017-09-09T08:02:00.485Z,15.1
2017-09-09T08:03:02.592Z,15.1
2017-09-09T08:04:04.726Z,15.2
2017-09-09T08:05:06.755Z,15.1
2017-09-09T08:06:09.110Z,15.1
2017-09-09T08:07:11.165Z,15.1
2017-09-09T08:08:13.262Z,15.1
2017-09-09T08:09:15.345Z,15.3
2017-09-09T08:10:17.477Z,15.3
2017-09-09T08:11:19.921Z,15.2
2017-09-09T08:12:22.044Z,15.1
2017-09-09T08:13:24.131Z,15.2
2017-09-09T08:14:26.191Z,15.2
2017-09-09T08:15:28.479Z,15.2
2017-09-09T08:16:30.916Z,15.1
2017-09-09T08:17:32.994Z,15.1
2017-09-09T08:18:35.090Z,15.2
2017-09-09T08:19:37.200Z,15.3
2017-09-09T08:20:39.269Z,15.2
2017-09-09T08:21:41.714Z,15.2
2017-09-09T08:22:43.822Z,15.2
2017-09-09T08:23:45.915Z,15.3
2017-09-09T08:24:48.023Z,15.2
2017-09-09T08:25:50.107Z,15.2
2017-09-09T08:26:52.611Z,15.3
2017-09-09T08:27:54.744Z,15.2
2017-09-09T08:28:56.877Z,15.2
2017-09-09T08:29:58.978Z,15.1
2017-09-09T08:31:01.098Z,15.2
2017-09-09T08:32:03.562Z,15.1
2017-09-09T08:33:05.660Z,15.1
2017-09-09T08:34:07.780Z,15.1
2017-09-09T08:35:10.265Z,15
2017-09-09T08:36:12.423Z,15.1
2017-09-09T08:37:14.902Z,15.1
2017-09-09T08:38:17.001Z,15.1
2017-09-09T08:39:19.093Z,15.2
2017-09-09T08:40:21.174Z,15.1
2017-09-09T08:41:23.303Z,15
2017-09-09T08:42:25.803Z,15.2
2017-09-09T08:43:27.970Z,15.2
2017-09-09T08:44:30.127Z,15.3
2017-09-09T08:45:32.288Z,15.5
2017-09-09T08:46:34.411Z,15.5
2017-09-09T08:47:36.821Z,15.3
2017-09-09T08:48:38.978Z,15.4
2017-09-09T08:49:41.139Z,15.5
2017-09-09T08:50:43.260Z,15.4
2017-09-09T08:51:45.410Z,15.2
2017-09-09T08:52:47.818Z,15.2
2017-09-09T08:53:49.891Z,15.3
2017-09-09T08:54:52.314Z,15.2
2017-09-09T08:55:54.492Z,15.2
2017-09-09T08:56:56.836Z,15.1
2017-09-09T08:57:59.346Z,15
2017-09-09T08:59:01.494Z,15.1
2017-09-09T09:00:03.578Z,15
2017-09-09T09:01:05.716Z,15.1
2017-09-09T09:02:07.813Z,15.1
2017-09-09T09:03:10.252Z,15.1
2017-09-09T09:04:12.396Z,15.2
2017-09-09T09:05:14.502Z,15.3
2017-09-09T09:06:16.663Z,15.3
2017-09-09T09:07:19.491Z,15.1
2017-09-09T09:08:22.046Z,15
2017-09-09T09:09:24.170Z,15.1
2017-09-09T09:10:26.316Z,15.2
2017-09-09T09:11:28.468Z,15.2
2017-09-09T09:12:30.605Z,15.1
2017-09-09T09:13:33.075Z,15.2
2017-09-09T09:14:35.274Z,15.1
2017-09-09T09:15:37.402Z,15.1
2017-09-09T09:16:39.513Z,15.2
2017-09-09T09:17:41.621Z,15.1
2017-09-09T09:18:44.092Z,15.3
2017-09-09T09:19:46.196Z,15.1
2017-09-09T09:20:48.324Z,15.1
2017-09-09T09:21:50.715Z,15.2
2017-09-09T09:22:52.800Z,15.2
2017-09-09T09:23:55.189Z,15.2
2017-09-09T09:24:57.344Z,15.2
2017-09-09T09:25:59.464Z,15.2
2017-09-09T09:27:01.582Z,15.2
2017-09-09T09:28:03.638Z,15.2
2017-09-09T09:29:06.039Z,15.1
2017-09-09T09:30:08.168Z,15.1
2017-09-09T09:31:10.617Z,15
2017-09-09T09:32:12.704Z,15.1
2017-09-09T09:33:14.871Z,15.1
2017-09-09T09:34:17.393Z,15.1
2017-09-09T09:35:19.686Z,15.1
2017-09-09T09:36:21.819Z,15.2
2017-09-09T09:37:23.953Z,15.2
2017-09-09T09:38:26.068Z,15.2
2017-09-09T09:39:28.485Z,15.2
2017-09-09T09:40:30.750Z,15.1
2017-09-09T09:41:32.851Z,15.3
2017-09-09T09:42:34.955Z,15.4
2017-09-09T09:43:37.049Z,15.2
2017-09-09T09:44:39.406Z,15.3
2017-09-09T09:45:41.540Z,15.4
2017-09-09T09:46:43.600Z,15.4
2017-09-09T09:47:45.769Z,15.4
2017-09-09T09:48:47.909Z,15.4
2017-09-09T09:49:50.406Z,15.4
2017-09-09T09:50:52.676Z,15.4
2017-09-09T09:51:54.803Z,15.3
2017-09-09T09:52:56.967Z,15.4
2017-09-09T09:53:59.104Z,15.4
2017-09-09T09:55:01.566Z,15.4
2017-09-09T09:56:03.706Z,15.4
2017-09-09T09:57:05.835Z,15.4
2017-09-09T09:58:07.936Z,15.5
2017-09-09T09:59:10.105Z,15.4
2017-09-09T10:00:12.611Z,15.4
2017-09-09T10:01:14.764Z,15.4
2017-09-09T10:02:16.832Z,15.5
2017-09-09T10:03:19.632Z,15.4
2017-09-09T10:04:21.689Z,15.4
2017-09-09T10:05:24.129Z,15.4
2017-09-09T10:06:26.384Z,15.5
2017-09-09T10:07:28.537Z,15.4
2017-09-09T10:08:30.664Z,15.5
2017-09-09T10:09:32.776Z,15.4
2017-09-09T10:10:35.247Z,15.5
2017-09-09T10:11:37.990Z,15.5
2017-09-09T10:12:40.201Z,15.4
2017-09-09T10:13:42.386Z,15.4
2017-09-09T10:14:45.889Z,15.5
2017-09-09T10:15:48.278Z,15.4
2017-09-09T10:16:50.421Z,15.6
2017-09-09T10:17:52.500Z,15.5
2017-09-09T10:18:54.644Z,15.4
2017-09-09T10:19:56.737Z,15.4
2017-09-09T10:20:59.141Z,15.6
2017-09-09T10:22:01.241Z,15.6
2017-09-09T10:23:03.382Z,15.5
2017-09-09T10:24:05.503Z,15.5
2017-09-09T10:25:07.583Z,15.5
2017-09-09T10:26:10.072Z,15.6
2017-09-09T10:27:12.198Z,15.7
2017-09-09T10:28:15.319Z,15.8
2017-09-09T10:29:19.732Z,15.8
2017-09-09T10:30:21.882Z,15.8
2017-09-09T10:31:24.427Z,15.7
2017-09-09T10:32:26.576Z,15.7
2017-09-09T10:33:28.675Z,15.5
2017-09-09T10:34:30.831Z,15.7
2017-09-09T10:35:32.937Z,15.7
2017-09-09T10:36:35.301Z,15.7
2017-09-09T10:37:37.423Z,15.7
2017-09-09T10:38:39.554Z,15.8
2017-09-09T10:39:41.712Z,15.7
2017-09-09T10:40:43.987Z,15.7
2017-09-09T10:41:46.551Z,15.9
2017-09-09T10:42:48.629Z,16.3
2017-09-09T10:43:50.788Z,16.4
2017-09-09T10:44:52.933Z,16.6
2017-09-09T10:45:56.682Z,16.9
2017-09-09T10:46:59.092Z,17.1
2017-09-09T10:48:01.256Z,17.1
2017-09-09T10:49:03.339Z,17.1
2017-09-09T10:50:05.527Z,17.1
2017-09-09T10:51:07.674Z,17
2017-09-09T10:52:10.076Z,17
2017-09-09T10:53:12.284Z,16.8
2017-09-09T10:54:14.402Z,16.8
2017-09-09T10:55:16.485Z,16.8
2017-09-09T10:56:18.619Z,16.7
2017-09-09T10:57:21.166Z,16.7
2017-09-09T10:58:25.777Z,16.7
2017-09-09T10:59:27.940Z,16.8
2017-09-09T11:00:30.357Z,16.8
2017-09-09T11:01:32.682Z,16.8
2017-09-09T11:02:35.062Z,16.7
2017-09-09T11:03:37.357Z,16.8
2017-09-09T11:04:39.824Z,16.9
2017-09-09T11:05:42.305Z,17
2017-09-09T11:06:44.840Z,17.1
2017-09-09T11:07:47.527Z,17
2017-09-09T11:08:49.850Z,16.9
2017-09-09T11:09:52.052Z,17
2017-09-09T11:10:54.148Z,17.2
2017-09-09T11:11:56.252Z,17.2
2017-09-09T11:12:59.069Z,17.3
2017-09-09T11:14:01.179Z,17.4
2017-09-09T11:15:03.277Z,17.5
2017-09-09T11:16:05.449Z,17.8
2017-09-09T11:17:07.592Z,18
2017-09-09T11:18:09.755Z,18
2017-09-09T11:19:11.871Z,18
2017-09-09T11:20:14.974Z,17.8
2017-09-09T11:21:17.315Z,17.9
2017-09-09T11:22:19.466Z,18.1
2017-09-09T11:23:21.924Z,18.1
2017-09-09T11:24:24.415Z,18.1
2017-09-09T11:25:26.862Z,18.3
2017-09-09T11:26:29.508Z,18.5
2017-09-09T11:27:31.790Z,18.4
2017-09-09T11:28:34.409Z,18.4
2017-09-09T11:29:36.677Z,18.6
2017-09-09T11:30:39.046Z,18.5
2017-09-09T11:31:41.387Z,18.5
2017-09-09T11:32:43.847Z,18.4
2017-09-09T11:33:46.658Z,18.4
2017-09-09T11:34:49.163Z,18.1
2017-09-09T11:35:51.840Z,18
2017-09-09T11:36:54.747Z,17.8
2017-09-09T11:37:57.165Z,17.6
2017-09-09T11:39:00.133Z,17.6
2017-09-09T11:40:02.789Z,17.6
2017-09-09T11:41:05.409Z,17.5
2017-09-09T11:42:07.824Z,17.6
2017-09-09T11:43:10.132Z,17.5
2017-09-09T11:44:12.569Z,17.4
2017-09-09T11:45:14.782Z,17.3
2017-09-09T11:46:17.260Z,17.3
2017-09-09T11:47:19.354Z,17.2
2017-09-09T11:48:21.453Z,17.2
2017-09-09T11:49:23.848Z,17.2
2017-09-09T11:50:25.997Z,17.1
2017-09-09T11:51:28.185Z,17.2
2017-09-09T11:52:30.311Z,17.1
2017-09-09T11:53:32.467Z,17.1
2017-09-09T11:54:34.864Z,17
2017-09-09T11:55:37.038Z,16.9
2017-09-09T11:56:39.162Z,17
2017-09-09T11:57:41.394Z,17
2017-09-09T11:58:43.479Z,17
2017-09-09T11:59:45.897Z,16.9
2017-09-09T12:00:48.049Z,16.8
2017-09-09T12:01:50.192Z,16.8
2017-09-09T12:02:52.293Z,16.8
2017-09-09T12:03:54.383Z,16.8
2017-09-09T12:04:56.813Z,16.9
2017-09-09T12:05:58.990Z,17
2017-09-09T12:07:01.085Z,16.9
2017-09-09T12:08:03.212Z,16.8
2017-09-09T12:09:05.820Z,16.8
2017-09-09T12:10:09.058Z,16.8
2017-09-09T12:11:11.232Z,16.9
2017-09-09T12:12:13.421Z,17
2017-09-09T12:13:15.566Z,17
2017-09-09T12:14:18.012Z,17.1
2017-09-09T12:15:20.628Z,17.2
2017-09-09T12:16:23.016Z,17.3
2017-09-09T12:17:25.149Z,17.4
2017-09-09T12:18:27.246Z,17.5
2017-09-09T12:19:29.359Z,17.4
2017-09-09T12:20:32.323Z,17.5
2017-09-09T12:21:34.456Z,17.8
2017-09-09T12:22:36.555Z,18
2017-09-09T12:23:38.663Z,18
2017-09-09T12:24:40.758Z,17.7
2017-09-09T12:25:43.240Z,17.8
2017-09-09T12:26:45.308Z,17.7
2017-09-09T12:27:47.378Z,17.9
2017-09-09T12:28:49.459Z,18
2017-09-09T12:29:51.591Z,17.9
2017-09-09T12:30:54.046Z,17.8
2017-09-09T12:31:56.141Z,17.8
2017-09-09T12:32:58.196Z,17.6
2017-09-09T12:34:00.314Z,17.7
2017-09-09T12:35:02.456Z,17.8
2017-09-09T12:36:04.882Z,17.8
2017-09-09T12:37:06.985Z,17.8
2017-09-09T12:38:09.107Z,17.9
2017-09-09T12:39:11.159Z,17.9
2017-09-09T12:40:13.253Z,18
2017-09-09T12:41:15.605Z,18.1
2017-09-09T12:42:17.690Z,18.1
2017-09-09T12:43:19.763Z,18
2017-09-09T12:44:21.973Z,18.3
2017-09-09T12:45:24.063Z,18.4
2017-09-09T12:46:26.458Z,18.4
2017-09-09T12:47:28.572Z,18.4
2017-09-09T12:48:30.681Z,18.4
2017-09-09T12:49:32.749Z,18.2
2017-09-09T12:50:34.821Z,18.2
2017-09-09T12:51:37.282Z,18.3
2017-09-09T12:52:39.354Z,18.3
2017-09-09T12:53:41.428Z,18.2
2017-09-09T12:54:43.494Z,18.2
2017-09-09T12:55:46.227Z,18.3
2017-09-09T12:56:49.259Z,18.5
2017-09-09T12:57:51.372Z,18.4
2017-09-09T12:58:53.513Z,18.4
2017-09-09T12:59:55.621Z,18.3
2017-09-09T13:00:57.776Z,18.1
2017-09-09T13:02:00.187Z,18
2017-09-09T13:03:02.307Z,18.1
2017-09-09T13:04:04.492Z,18.1
2017-09-09T13:05:06.624Z,18
2017-09-09T13:06:08.731Z,17.9
2017-09-09T13:07:12.072Z,17.8
2017-09-09T13:08:14.923Z,17.9
2017-09-09T13:09:17.022Z,18
2017-09-09T13:10:19.161Z,17.9
2017-09-09T13:11:21.281Z,18
2017-09-09T13:12:23.668Z,17.8
2017-09-09T13:13:25.713Z,17.8
2017-09-09T13:14:27.807Z,17.9
2017-09-09T13:15:29.953Z,17.8
2017-09-09T13:16:32.076Z,17.8
2017-09-09T13:17:34.532Z,17.8
2017-09-09T13:18:36.607Z,17.6
2017-09-09T13:19:38.672Z,17.7
2017-09-09T13:20:40.873Z,17.7
2017-09-09T13:21:42.947Z,17.7
2017-09-09T13:22:45.486Z,17.8
2017-09-09T13:23:47.631Z,17.8
2017-09-09T13:24:49.970Z,17.8
2017-09-09T13:25:52.196Z,17.9
2017-09-09T13:26:54.345Z,17.8
2017-09-09T13:27:56.754Z,17.9
2017-09-09T13:28:58.861Z,17.8
2017-09-09T13:30:00.917Z,17.8
2017-09-09T13:31:03.230Z,17.9
2017-09-09T13:32:05.365Z,17.9
2017-09-09T13:33:07.840Z,17.9
2017-09-09T13:34:09.952Z,17.8
2017-09-09T13:35:12.046Z,17.8
2017-09-09T13:36:14.195Z,17.7
2017-09-09T13:37:16.607Z,17.8
2017-09-09T13:38:19.037Z,17.9
2017-09-09T13:39:21.122Z,18
2017-09-09T13:40:23.665Z,18
2017-09-09T13:41:25.761Z,17.9
2017-09-09T13:42:27.879Z,18
2017-09-09T13:43:30.196Z,18.1
2017-09-09T13:44:32.307Z,18
2017-09-09T13:45:34.480Z,18
2017-09-09T13:46:36.605Z,18
2017-09-09T13:47:38.689Z,18.1
2017-09-09T13:48:41.529Z,18.1
2017-09-09T13:49:43.631Z,18.2
2017-09-09T13:50:45.775Z,18.1
2017-09-09T13:51:47.889Z,18.1
2017-09-09T13:52:50.002Z,18
2017-09-09T13:53:52.418Z,17.9
2017-09-09T13:54:54.508Z,17.9